createdAt,value
2022-11-27T00:02:19.336Z,10.68
2022-11-27T00:04:51.506Z,11.68
2022-11-27T00:07:23.690Z,10.70
2022-11-27T00:09:55.687Z,9.82
2022-11-27T00:12:27.707Z,10.27
2022-11-27T00:14:59.834Z,8.88
2022-11-27T00:17:31.898Z,8.85
2022-11-27T00:20:04.981Z,9.15
2022-11-27T00:22:37.003Z,10.98
2022-11-27T00:25:09.260Z,8.93
2022-11-27T00:27:41.287Z,9.05
2022-11-27T00:30:14.155Z,9.10
2022-11-27T00:32:46.207Z,10.27
2022-11-27T00:35:18.500Z,8.70
2022-11-27T00:37:50.580Z,7.75
2022-11-27T00:40:22.564Z,9.23
2022-11-27T00:42:54.590Z,9.35
2022-11-27T00:45:26.659Z,8.55
2022-11-27T00:47:58.627Z,8.77
2022-11-27T00:50:32.209Z,8.32
2022-11-27T00:53:04.253Z,9.02
2022-11-27T00:55:36.221Z,8.23
2022-11-27T00:58:08.342Z,7.60
2022-11-27T01:00:40.548Z,7.55
2022-11-27T01:03:12.577Z,8.65
2022-11-27T01:05:44.905Z,7.80
2022-11-27T01:08:17.684Z,8.27
2022-11-27T01:10:56.167Z,8.50
2022-11-27T01:13:33.096Z,7.47
2022-11-27T01:16:12.794Z,7.47
2022-11-27T01:18:46.963Z,6.78
2022-11-27T01:21:21.845Z,7.50
2022-11-27T01:23:55.137Z,7.47
2022-11-27T01:26:27.961Z,8.25
2022-11-27T01:29:00.324Z,8.18
2022-11-27T01:31:34.587Z,7.85
2022-11-27T01:34:16.952Z,8.77
2022-11-27T01:36:49.070Z,7.55
2022-11-27T01:39:24.499Z,7.18
2022-11-27T01:41:56.665Z,7.47
2022-11-27T01:44:28.510Z,7.80
2022-11-27T01:47:15.055Z,7.32
2022-11-27T01:49:52.905Z,8.13
2022-11-27T01:52:31.470Z,8.13
2022-11-27T01:55:19.076Z,8.98
2022-11-27T01:57:59.157Z,7.90
2022-11-27T02:00:31.142Z,7.85
2022-11-27T02:03:03.214Z,6.90
2022-11-27T02:05:35.572Z,8.23
2022-11-27T02:08:15.734Z,8.13
2022-11-27T02:11:18.084Z,7.97
2022-11-27T02:14:23.942Z,9.55
2022-11-27T02:17:12.613Z,9.13
2022-11-27T02:19:56.528Z,8.05
2022-11-27T02:23:11.568Z,9.23
2022-11-27T02:26:32.008Z,9.90
2022-11-27T02:32:11.238Z,10.18
2022-11-27T02:34:46.111Z,9.13
2022-11-27T02:37:53.875Z,10.25
2022-11-27T02:40:42.783Z,11.20
2022-11-27T02:43:37.282Z,9.65
2022-11-27T02:46:11.046Z,10.85
2022-11-27T02:49:02.447Z,12.30
2022-11-27T02:51:43.565Z,11.05
2022-11-27T02:54:22.550Z,10.95
2022-11-27T02:56:57.592Z,12.27
2022-11-27T02:59:31.784Z,11.73
2022-11-27T03:02:14.338Z,12.50
2022-11-27T03:04:53.032Z,12.30
2022-11-27T03:08:01.983Z,12.43
2022-11-27T03:11:14.482Z,12.15
2022-11-27T03:13:52.417Z,14.43
2022-11-27T03:16:50.430Z,13.85
2022-11-27T03:19:33.991Z,13.98
2022-11-27T03:22:06.642Z,14.38
2022-11-27T03:24:39.687Z,13.50
2022-11-27T03:27:17.357Z,14.13
2022-11-27T03:29:57.430Z,16.13
2022-11-27T03:32:31.292Z,16.08
2022-11-27T03:35:06.115Z,17.17
2022-11-27T03:37:38.182Z,16.00
2022-11-27T03:40:11.267Z,15.27
2022-11-27T03:43:17.119Z,16.23
2022-11-27T03:45:57.691Z,17.60
2022-11-27T03:49:05.139Z,16.35
2022-11-27T03:52:06.483Z,19.92
2022-11-27T03:55:03.498Z,16.52
2022-11-27T03:57:43.184Z,18.13
2022-11-27T04:00:15.774Z,16.42
2022-11-27T04:02:52.399Z,17.50
2022-11-27T04:05:24.538Z,16.90
2022-11-27T04:07:56.734Z,15.60
2022-11-27T04:10:28.815Z,15.10
2022-11-27T04:13:00.771Z,15.90
2022-11-27T04:15:32.900Z,17.80
2022-11-27T04:18:05.143Z,17.08
2022-11-27T04:20:37.402Z,17.27
2022-11-27T04:23:10.315Z,16.20
2022-11-27T04:25:42.399Z,16.63
2022-11-27T04:28:14.680Z,17.35
2022-11-27T04:30:52.707Z,15.77
2022-11-27T04:33:25.149Z,17.10
2022-11-27T04:35:57.266Z,15.52
2022-11-27T04:38:29.591Z,17.02
2022-11-27T04:41:01.698Z,16.52
2022-11-27T04:43:33.839Z,16.58
2022-11-27T04:46:06.160Z,16.38
2022-11-27T04:48:38.285Z,16.75
2022-11-27T04:51:10.261Z,16.70
2022-11-27T04:53:42.391Z,18.40
2022-11-27T04:56:14.505Z,17.42
2022-11-27T04:58:46.475Z,16.35
2022-11-27T05:01:18.957Z,17.10
2022-11-27T05:03:51.268Z,18.73
2022-11-27T05:06:23.241Z,17.27
2022-11-27T05:09:02.160Z,17.33
2022-11-27T05:11:34.923Z,16.05
2022-11-27T05:14:16.772Z,17.98
2022-11-27T05:16:52.735Z,16.67
2022-11-27T05:19:28.878Z,16.95
2022-11-27T05:22:00.867Z,14.85
2022-11-27T05:24:33.308Z,14.98
2022-11-27T05:27:05.470Z,16.88
2022-11-27T05:29:39.575Z,16.15
2022-11-27T05:32:11.579Z,16.15
2022-11-27T05:34:43.651Z,15.57
2022-11-27T05:37:19.450Z,16.02
2022-11-27T05:39:52.124Z,17.05
2022-11-27T05:42:24.310Z,15.98
2022-11-27T05:44:58.483Z,14.38
2022-11-27T05:47:30.690Z,15.60
2022-11-27T05:50:02.764Z,16.15
2022-11-27T05:52:35.306Z,15.77
2022-11-27T05:55:08.030Z,16.25
2022-11-27T05:57:40.115Z,14.60
2022-11-27T06:00:13.123Z,15.52
2022-11-27T06:02:45.178Z,16.98
2022-11-27T06:05:17.300Z,16.60
2022-11-27T06:07:49.334Z,14.48
2022-11-27T06:10:22.685Z,16.00
2022-11-27T06:12:55.615Z,14.80
2022-11-27T06:15:28.851Z,15.98
2022-11-27T06:18:00.823Z,15.68
2022-11-27T06:20:33.486Z,16.10
2022-11-27T06:23:05.453Z,15.70
2022-11-27T06:25:37.446Z,16.50
2022-11-27T06:28:09.707Z,15.52
2022-11-27T06:30:41.742Z,16.85
2022-11-27T06:33:13.885Z,16.13
2022-11-27T06:35:45.821Z,15.43
2022-11-27T06:38:17.874Z,15.05
2022-11-27T06:40:49.866Z,14.82
2022-11-27T06:43:21.950Z,15.50
2022-11-27T06:45:58.553Z,15.13
2022-11-27T06:48:31.018Z,14.20
2022-11-27T06:51:06.178Z,15.88
2022-11-27T06:53:39.114Z,15.38
2022-11-27T06:56:15.557Z,15.32
2022-11-27T06:58:51.583Z,15.25
2022-11-27T07:01:26.384Z,16.50
2022-11-27T07:03:59.144Z,15.27
2022-11-27T07:06:31.368Z,15.20
2022-11-27T07:09:04.109Z,14.95
2022-11-27T07:11:36.984Z,16.17
2022-11-27T07:14:10.183Z,16.20
2022-11-27T07:16:42.317Z,15.52
2022-11-27T07:19:14.857Z,14.95
2022-11-27T07:21:46.828Z,15.25
2022-11-27T07:24:18.901Z,17.38
2022-11-27T07:26:51.048Z,15.00
2022-11-27T07:29:23.355Z,15.52
2022-11-27T07:31:55.583Z,14.43
2022-11-27T07:34:27.564Z,14.02
2022-11-27T07:36:59.594Z,13.63
2022-11-27T07:40:00.233Z,14.38
2022-11-27T07:42:37.344Z,14.85
2022-11-27T07:45:11.947Z,14.35
2022-11-27T07:47:43.930Z,15.05
2022-11-27T07:50:16.030Z,14.23
2022-11-27T07:52:48.186Z,15.27
2022-11-27T07:55:20.285Z,15.52
2022-11-27T07:57:52.289Z,15.20
2022-11-27T08:00:25.090Z,13.50
2022-11-27T08:02:57.181Z,14.35
2022-11-27T08:05:29.480Z,14.43
2022-11-27T08:08:04.546Z,15.27
2022-11-27T08:10:38.475Z,15.52
2022-11-27T08:13:10.776Z,16.80
2022-11-27T08:15:43.050Z,14.55
2022-11-27T08:18:15.082Z,17.25
2022-11-27T08:20:47.040Z,15.63
2022-11-27T08:23:19.022Z,15.88
2022-11-27T08:25:50.980Z,15.88
2022-11-27T08:28:23.056Z,17.40
2022-11-27T08:31:00.665Z,16.35
2022-11-27T08:33:33.217Z,29.65
2022-11-27T08:36:08.514Z,19.98
2022-11-27T08:38:41.897Z,20.52
2022-11-27T08:41:14.520Z,19.70
2022-11-27T08:43:46.646Z,24.83
2022-11-27T08:46:18.745Z,16.67
2022-11-27T08:48:50.802Z,19.48
2022-11-27T08:51:22.802Z,15.98
2022-11-27T08:53:55.132Z,15.90
2022-11-27T08:56:27.545Z,21.25
2022-11-27T08:58:59.504Z,18.25
2022-11-27T09:01:33.265Z,17.90
2022-11-27T09:04:05.617Z,15.52
2022-11-27T09:06:37.791Z,20.10
2022-11-27T09:09:10.451Z,17.30
2022-11-27T09:11:43.161Z,14.13
2022-11-27T09:14:15.396Z,15.88
2022-11-27T09:16:50.379Z,15.43
2022-11-27T09:19:22.424Z,15.18
2022-11-27T09:21:54.421Z,13.27
2022-11-27T09:24:29.215Z,14.77
2022-11-27T09:27:01.302Z,12.73
2022-11-27T09:29:35.324Z,14.15
2022-11-27T09:32:07.532Z,12.85
2022-11-27T09:34:39.935Z,13.50
2022-11-27T09:37:12.114Z,13.18
2022-11-27T09:39:44.086Z,13.73
2022-11-27T09:42:40.426Z,12.98
2022-11-27T09:45:16.289Z,12.30
2022-11-27T09:48:06.949Z,13.60
2022-11-27T09:50:50.582Z,13.18
2022-11-27T09:53:34.276Z,14.07
2022-11-27T09:56:11.361Z,13.43
2022-11-27T09:58:50.148Z,11.20
2022-11-27T10:01:34.899Z,12.63
2022-11-27T10:04:14.712Z,13.70
2022-11-27T10:07:02.010Z,12.73
2022-11-27T10:09:37.552Z,12.30
2022-11-27T10:12:27.167Z,12.43
2022-11-27T10:15:07.475Z,13.18
2022-11-27T10:20:51.499Z,12.23
2022-11-27T10:23:53.738Z,11.05
2022-11-27T10:26:38.146Z,12.55
2022-11-27T10:29:32.334Z,11.75
2022-11-27T10:32:46.740Z,12.10
2022-11-27T10:35:20.061Z,13.27
2022-11-27T10:38:16.180Z,12.18
2022-11-27T10:41:28.335Z,13.07
2022-11-27T10:44:57.847Z,12.48
2022-11-27T10:47:33.638Z,12.57
2022-11-27T10:50:20.477Z,11.73
2022-11-27T10:52:59.757Z,11.23
2022-11-27T10:56:02.390Z,10.82
2022-11-27T10:59:07.244Z,11.63
2022-11-27T11:01:53.493Z,11.80
2022-11-27T11:04:39.956Z,11.88
2022-11-27T11:07:29.704Z,11.45
2022-11-27T11:10:02.148Z,10.88
2022-11-27T11:12:34.382Z,12.70
2022-11-27T11:15:11.848Z,11.15
2022-11-27T11:17:43.952Z,11.10
2022-11-27T11:20:24.860Z,10.65
2022-11-27T11:22:57.274Z,11.20
2022-11-27T11:25:29.493Z,11.25
2022-11-27T11:28:01.499Z,11.10
2022-11-27T11:30:34.850Z,10.40
2022-11-27T11:33:12.647Z,11.07
2022-11-27T11:35:54.728Z,10.65
2022-11-27T11:38:33.113Z,10.98
2022-11-27T11:41:07.436Z,11.00
2022-11-27T11:43:39.972Z,10.70
2022-11-27T11:46:25.361Z,11.55
2022-11-27T11:49:18.408Z,11.27
2022-11-27T11:52:14.012Z,10.90
2022-11-27T11:54:59.593Z,10.95
2022-11-27T11:57:39.781Z,10.38
2022-11-27T12:00:29.614Z,9.55
2022-11-27T12:03:28.344Z,10.38
2022-11-27T12:06:47.561Z,9.70
2022-11-27T12:09:45.208Z,10.95
2022-11-27T12:12:23.311Z,10.60
2022-11-27T12:15:45.147Z,9.93
2022-11-27T12:18:35.493Z,10.52
2022-11-27T12:21:38.151Z,10.25
2022-11-27T12:24:33.924Z,11.23
2022-11-27T12:27:33.097Z,10.82
2022-11-27T12:30:26.616Z,10.45
2022-11-27T12:33:07.578Z,9.55
2022-11-27T12:36:20.316Z,10.50
2022-11-27T12:39:10.039Z,10.23
2022-11-27T12:42:23.264Z,10.63
2022-11-27T12:45:22.009Z,10.23
2022-11-27T12:48:03.519Z,10.73
2022-11-27T12:50:48.444Z,10.77
2022-11-27T12:53:39.775Z,10.30
2022-11-27T12:56:31.407Z,10.38
2022-11-27T12:59:15.246Z,10.88
2022-11-27T13:02:09.248Z,10.38
2022-11-27T13:04:52.313Z,10.93
2022-11-27T13:07:53.152Z,10.20
2022-11-27T13:10:47.256Z,9.73
2022-11-27T13:13:59.922Z,11.43
2022-11-27T13:16:41.476Z,11.60
2022-11-27T13:19:32.167Z,11.23
2022-11-27T13:22:16.107Z,10.30
2022-11-27T13:24:48.223Z,10.40
2022-11-27T13:27:26.310Z,10.35
2022-11-27T13:30:26.742Z,10.13
2022-11-27T13:35:43.386Z,10.20
2022-11-27T13:38:24.709Z,9.65
2022-11-27T13:40:57.705Z,14.05
2022-11-27T13:43:44.264Z,13.18
2022-11-27T13:46:29.830Z,12.20
2022-11-27T13:49:05.439Z,10.63
2022-11-27T13:51:39.711Z,9.68
2022-11-27T13:54:17.121Z,10.40
2022-11-27T13:56:49.707Z,9.32
2022-11-27T13:59:24.652Z,10.48
2022-11-27T14:02:05.617Z,10.77
2022-11-27T14:04:55.667Z,10.23
2022-11-27T14:07:45.335Z,10.38
2022-11-27T14:10:25.878Z,9.10
2022-11-27T14:13:09.756Z,10.02
2022-11-27T14:15:41.958Z,10.70
2022-11-27T14:18:20.022Z,10.25
2022-11-27T14:21:01.867Z,9.80
2022-11-27T14:23:49.436Z,10.35
2022-11-27T14:26:25.111Z,9.80
2022-11-27T14:28:59.849Z,9.25
2022-11-27T14:31:35.808Z,10.27
2022-11-27T14:34:32.453Z,10.27
2022-11-27T14:37:04.555Z,10.75
2022-11-27T14:39:38.024Z,10.95
2022-11-27T14:42:27.941Z,11.25
2022-11-27T14:45:15.873Z,11.38
2022-11-27T14:47:54.149Z,10.57
2022-11-27T14:50:26.492Z,10.15
2022-11-27T14:52:58.837Z,9.45
2022-11-27T14:55:34.862Z,10.50
2022-11-27T14:58:15.468Z,10.00
2022-11-27T15:01:24.112Z,10.65
2022-11-27T15:04:02.616Z,10.57
2022-11-27T15:06:44.229Z,9.88
2022-11-27T15:09:32.622Z,10.50
2022-11-27T15:12:17.885Z,11.30
2022-11-27T15:15:06.281Z,11.00
2022-11-27T15:17:40.097Z,11.32
2022-11-27T15:20:23.679Z,10.85
2022-11-27T15:22:58.156Z,10.50
2022-11-27T15:25:42.634Z,10.82
2022-11-27T15:28:33.934Z,10.30
2022-11-27T15:31:33.660Z,11.73
2022-11-27T15:34:17.617Z,10.80
2022-11-27T15:37:01.563Z,10.32
2022-11-27T15:39:39.081Z,10.88
2022-11-27T15:42:11.767Z,10.55
2022-11-27T15:44:43.974Z,11.45
2022-11-27T15:47:34.074Z,12.68
2022-11-27T15:50:07.608Z,11.18
2022-11-27T15:52:39.596Z,11.00
2022-11-27T15:55:16.019Z,11.38
2022-11-27T15:57:48.116Z,10.32
2022-11-27T16:00:22.253Z,11.80
2022-11-27T16:02:54.686Z,10.57
2022-11-27T16:05:26.793Z,10.65
2022-11-27T16:08:01.800Z,11.00
2022-11-27T16:10:33.870Z,11.20
2022-11-27T16:13:05.812Z,11.70
2022-11-27T16:15:38.447Z,12.43
2022-11-27T16:18:11.912Z,11.82
2022-11-27T16:20:43.974Z,11.80
2022-11-27T16:23:15.931Z,10.75
2022-11-27T16:25:48.113Z,11.25
2022-11-27T16:28:20.177Z,11.63
2022-11-27T16:30:58.291Z,12.32
2022-11-27T16:33:31.902Z,11.77
2022-11-27T16:36:13.541Z,11.20
2022-11-27T16:38:46.742Z,10.50
2022-11-27T16:41:19.864Z,11.45
2022-11-27T16:43:55.281Z,10.93
2022-11-27T16:46:31.102Z,11.30
2022-11-27T16:49:06.448Z,11.15
2022-11-27T16:51:40.161Z,11.48
2022-11-27T16:54:14.099Z,11.63
2022-11-27T16:56:46.399Z,11.45
2022-11-27T16:59:18.360Z,11.10
2022-11-27T17:01:50.607Z,11.40
2022-11-27T17:04:22.802Z,11.38
2022-11-27T17:06:54.987Z,11.93
2022-11-27T17:09:29.504Z,11.50
2022-11-27T17:12:02.018Z,9.82
2022-11-27T17:14:34.058Z,11.73
2022-11-27T17:17:06.731Z,10.30
2022-11-27T17:19:39.027Z,11.52
2022-11-27T17:22:11.356Z,10.32
2022-11-27T17:24:43.401Z,11.40
2022-11-27T17:27:15.382Z,11.35
2022-11-27T17:29:47.451Z,11.30
2022-11-27T17:32:19.508Z,10.25
2022-11-27T17:34:51.535Z,10.90
2022-11-27T17:37:23.780Z,10.65
2022-11-27T17:39:55.862Z,10.88
2022-11-27T17:42:27.889Z,11.18
2022-11-27T17:45:00.005Z,9.70
2022-11-27T17:47:34.219Z,10.57
2022-11-27T17:50:07.875Z,10.23
2022-11-27T17:52:40.016Z,11.18
2022-11-27T17:55:12.100Z,10.18
2022-11-27T17:57:44.125Z,11.68
2022-11-27T18:00:18.739Z,10.43
2022-11-27T18:02:50.868Z,9.63
2022-11-27T18:05:22.822Z,9.98
2022-11-27T18:07:55.038Z,10.63
2022-11-27T18:10:27.234Z,10.70
2022-11-27T18:12:59.358Z,10.23
2022-11-27T18:15:31.496Z,9.50
2022-11-27T18:18:03.796Z,9.88
2022-11-27T18:20:36.514Z,8.50
2022-11-27T18:23:08.590Z,8.93
2022-11-27T18:25:47.593Z,9.40
2022-11-27T18:30:54.256Z,9.10
2022-11-27T18:33:26.540Z,9.48
2022-11-27T18:35:58.555Z,9.48
2022-11-27T18:38:36.395Z,9.35
2022-11-27T18:41:21.893Z,10.82
2022-11-27T18:43:54.340Z,9.70
2022-11-27T18:46:26.497Z,9.20
2022-11-27T18:48:59.177Z,9.90
2022-11-27T18:51:31.232Z,8.68
2022-11-27T18:54:03.320Z,8.50
2022-11-27T18:56:37.201Z,8.40
2022-11-27T18:59:09.421Z,8.35
2022-11-27T19:01:42.724Z,8.90
2022-11-27T19:04:18.055Z,7.97
2022-11-27T19:06:50.098Z,7.97
2022-11-27T19:09:22.221Z,8.32
2022-11-27T19:11:54.244Z,7.50
2022-11-27T19:14:26.320Z,8.27
2022-11-27T19:16:58.762Z,7.78
2022-11-27T19:22:25.477Z,7.82
2022-11-27T19:24:57.445Z,8.57
2022-11-27T19:27:29.488Z,7.63
2022-11-27T19:30:01.699Z,8.95
2022-11-27T19:32:33.731Z,9.02
2022-11-27T19:35:10.401Z,9.45
2022-11-27T19:37:42.374Z,7.85
2022-11-27T19:40:15.023Z,7.85
2022-11-27T19:42:47.217Z,8.38
2022-11-27T19:45:20.967Z,8.05
2022-11-27T19:47:53.203Z,7.85
2022-11-27T19:50:25.498Z,7.25
2022-11-27T19:52:59.512Z,7.28
2022-11-27T19:55:32.250Z,7.72
2022-11-27T19:58:04.617Z,7.57
2022-11-27T20:00:37.371Z,8.07
2022-11-27T20:03:09.375Z,7.97
2022-11-27T20:05:41.443Z,7.35
2022-11-27T20:08:13.484Z,8.48
2022-11-27T20:10:51.024Z,6.90
2022-11-27T20:13:23.200Z,8.55
2022-11-27T20:15:55.771Z,8.68
2022-11-27T20:18:28.310Z,8.55
2022-11-27T20:21:12.901Z,7.60
2022-11-27T20:23:46.966Z,7.80
2022-11-27T20:26:23.625Z,7.72
2022-11-27T20:28:56.683Z,7.25
2022-11-27T20:31:33.152Z,7.03
2022-11-27T20:34:07.324Z,7.60
2022-11-27T20:36:40.664Z,8.50
2022-11-27T20:39:17.687Z,7.47
2022-11-27T20:41:53.536Z,7.03
2022-11-27T20:44:27.736Z,7.45
2022-11-27T20:47:00.199Z,8.10
2022-11-27T20:49:33.992Z,7.63
2022-11-27T20:52:06.456Z,7.35
2022-11-27T20:54:38.837Z,9.15
2022-11-27T20:57:14.249Z,8.52
2022-11-27T20:59:46.272Z,7.93
2022-11-27T21:02:18.744Z,7.82
2022-11-27T21:04:50.739Z,8.15
2022-11-27T21:07:22.823Z,7.65
2022-11-27T21:09:57.714Z,7.60
2022-11-27T21:12:31.772Z,8.40
2022-11-27T21:15:05.508Z,7.28
2022-11-27T21:17:37.646Z,7.85
2022-11-27T21:20:10.232Z,7.60
2022-11-27T21:22:44.134Z,7.70
2022-11-27T21:25:16.387Z,7.43
2022-11-27T21:27:48.378Z,7.57
2022-11-27T21:30:20.505Z,7.68
2022-11-27T21:32:52.536Z,7.82
2022-11-27T21:35:30.080Z,8.25
2022-11-27T21:38:03.766Z,7.75
2022-11-27T21:40:37.428Z,7.35
2022-11-27T21:43:09.396Z,7.85
2022-11-27T21:45:41.377Z,7.93
2022-11-27T21:48:14.506Z,9.18
2022-11-27T21:50:47.069Z,6.97
2022-11-27T21:53:19.057Z,10.80
2022-11-27T21:55:51.250Z,8.65
2022-11-27T21:58:26.082Z,7.57
2022-11-27T22:00:58.346Z,6.72
2022-11-27T22:03:30.582Z,7.13
2022-11-27T22:06:12.860Z,7.68
2022-11-27T22:08:49.409Z,7.20
2022-11-27T22:11:26.912Z,7.50
2022-11-27T22:14:03.234Z,7.85
2022-11-27T22:16:44.362Z,8.73
2022-11-27T22:19:18.019Z,7.20
2022-11-27T22:21:50.716Z,7.30
2022-11-27T22:24:22.698Z,8.40
2022-11-27T22:26:54.707Z,8.55
2022-11-27T22:29:26.944Z,6.97
2022-11-27T22:31:58.949Z,7.20
2022-11-27T22:34:31.227Z,8.32
2022-11-27T22:37:05.998Z,7.95
2022-11-27T22:39:38.130Z,8.07
2022-11-27T22:42:10.432Z,7.13
2022-11-27T22:44:42.734Z,8.60
2022-11-27T22:47:15.545Z,7.90
2022-11-27T22:49:47.601Z,7.50
2022-11-27T22:52:19.716Z,7.28
2022-11-27T22:54:51.742Z,6.90
2022-11-27T22:57:24.031Z,6.95
2022-11-27T22:59:56.376Z,7.47
2022-11-27T23:02:28.485Z,7.45
2022-11-27T23:05:00.536Z,7.47
2022-11-27T23:07:32.519Z,7.85
2022-11-27T23:10:05.077Z,7.10
2022-11-27T23:12:37.459Z,7.07
2022-11-27T23:15:10.104Z,7.45
2022-11-27T23:17:42.025Z,6.78
2022-11-27T23:20:14.248Z,6.82
2022-11-27T23:22:46.293Z,7.30
2022-11-27T23:25:18.494Z,6.90
2022-11-27T23:27:50.813Z,7.00
2022-11-27T23:30:22.925Z,7.88
2022-11-27T23:32:55.100Z,7.25
2022-11-27T23:35:27.404Z,6.43
2022-11-27T23:37:59.531Z,6.75
2022-11-27T23:40:31.569Z,7.55
2022-11-27T23:43:03.573Z,6.82
2022-11-27T23:45:38.529Z,7.72
2022-11-27T23:48:10.514Z,8.15
2022-11-27T23:50:43.433Z,8.25
2022-11-27T23:53:15.538Z,8.20
2022-11-27T23:55:47.778Z,7.82
2022-11-27T23:58:19.797Z,8.75
